La Bastide des Jourdans (84) - F

Date : 19/05/2012
Distance : 2,000 km

Place Nom Licence Catégorie Club Temps min/km CN à J-60 Points Différence Nouveau CN
1 BOUSSER Etienne 1843 H65 5702LO 0:22:51 11'25 6679 7145 +466 6969
2 DROIN Solène 17925 D16 4201RA 0:23:23 11'41 4740 6982 +2242 5685
3 BODY Mathilde 10184 D16 7305RA 0:23:37 11'48 5501 6913 +1412 5730
4 BORNARD Julie 9402 D16 7305RA 0:23:44 11'52 4337 6879 +2542 5070
5 HABERKORN Chloé 10396 D16 2105BO 0:24:43 12'21 5746 6605 +859 6457
6 BUHRE Anders 7430 H70 0615AZ 0:25:28 12'44 5712 6411 +699 5890
7 GIRARD Lucille 19689 D16 3705CE 0:26:06 13'03 5105 6255 +1150 5189
8 DECHAVANNE Jean-Francois 3461 H60 6911RA 0:27:48 13'54 6101 5873 -228 6017
9 MASCARELL Henri 8928 H60 6911RA 0:28:17 14'08 5673 5772 +99 5802
10 BERGER-CAPBERN Valérie 6068 D50 3105MP 0:28:36 14'18 5119 5708 +589 5161
11 FOL Loreline 16393 D16 3105MP 0:29:27 14'43 3349 5543 +2194 4542
12 BASSET Fiona 23384 D16 6911RA 0:29:34 14'47 4189 5522 +1333 4632
13 CAMPOS J-Pierre 1739 H60 8302AZ 0:30:22 15'11 4553 5376 +823 4553
14 QUEYROI Henri 655 H65 3308AQ 0:30:53 15'26 4379 5286 +907 5030
15 GUILLEMET Océane 22819 D16 3318AQ 0:32:06 16'03 3809 5086 +1277 4951
16 COULON Thibaud 5803 H60 0615AZ 0:32:17 16'08 5107 5057 -50 5124
17 PETER-JAN Lucile 19276 D16 3705CE 0:32:20 16'10 4983 5049 +66 4932
18 GEOFFROY Gerard 6442 H65 3408LR 0:32:28 16'14 4234 5028 +794 4359
19 LOPEZ Alain 465 H60 1303PR 0:32:34 16'17 5401 5013 -388 5512
20 THIEVENAZ Roland 9230 H60 3811RA 0:32:53 16'26 4874 4965 +91 4934
21 ALLANCON Michel 1005 H60 2906BR 0:33:20 16'40 5033 4898 -135 5039
22 MOISSET Jacques 2328 H60 7403RA 0:33:44 16'52 4599 4840 +241 5156
23 LEMERCIER Victoire 11454 D16 5407LO 0:33:55 16'57 3723 4813 +1090 3896
24 MARTIN Pascale 23568 D50 7512IF 0:33:58 16'59 4519 4806 +287 4786
25 JACOMINO Mireille 277 D50 3801RA 0:34:10 17'05 4049 4778 +729 4229
26 VAGNER Christine 3651 D55 5702LO 0:34:17 17'08 5035 4762 -273 5091
27 POCIELLO Christian 10918 H60 3408LR 0:34:27 17'13 4308 4739 +431 4372
28 RICHAUD Alain 4156 H65 0615AZ 0:35:17 17'38 5121 4627 -494 5121
29 ROUX Marie Françoise 25236 D50 4201RA 0:35:33 17'46 4592 3619
30 DELENNE Camilla 13800 D16 1307PR 0:35:41 17'50 3997 4575 +578 4335
31 VUILLET Christian 2712 H60 2105BO 0:35:48 17'54 4743 4560 -183 4722
32 LOCUSSE Robert 2530 H60 5703LO 0:35:48 17'54 4792 4560 -232 4746
33 SIMONET Jean 930 H70 7707IF 0:36:05 18'02 4103 4524 +421 4851
34 DELATOUR Christiane 3057 D50 7404RA 0:36:24 18'12 4945 4485 -460 4945
35 GOLMARD Dominique 2670 H60 2101BO 0:37:04 18'32 4946 4404 -542 4891
36 PICAZO Marie 16555 D16 8405PR 0:37:06 18'33 4259 4400 +141 4463
37 LE DREAU J-Claude 9396 H60 4203RA 0:37:27 18'43 3979 4359 +380 4083
38 JOUZEAU Georges 9472 H60 7404RA 0:37:34 18'47 4624 4346 -278 4642
39 PUECH Francoise 1174 D55 8311AZ 0:37:58 18'59 3838 4300 +462 4009
40 GOLMARD Christian 2669 H65 2101BO 0:37:59 18'59 4863 4298 -565 4863
41 BERJOAN Claudie 13598 D55 3408LR 0:38:18 19'09 4252 4263 +11 4514
42 BAUDOIN Jean-Paul 16352 H60 0615AZ 0:38:23 19'11 4320 4253 -67 4241
43 DERMINE Isabelle 1847 D50 3801RA 0:38:50 19'25 4917 4204 -713 4917
44 ANTOINE Alain 1270 H65 2605RA 0:39:02 19'31 4960 4182 -778 5225
45 THIEBAUT Evelyne 16129 D55 5702LO 0:39:06 19'33 3316 4175 +859 3497
46 JUSSIAN Sylvie 17094 D50 1307PR 0:39:16 19'38 4046 4158 +112 4139
47 PERE Catherine 2730 D50 2105BO 0:39:54 19'57 4094 4092 -2 4259
48 RIVOLLIER Isaline 22451 D16 4201RA 0:39:58 19'59 3898 4085 +187 4507
49 DEBARBIEUX Julie 24574 D16 2108BO 0:40:06 20'03 2650 4071 +1421 3389
50 BERRARD Anna 19762 D16 2607RA 0:40:11 20'05 4050 4063 +13 4166
51 DEFIX Julia 19894 D16 4203RA 0:41:09 20'34 3563 3967 +404 3640
52 CORDIER Jacques 3312 H65 5702LO 0:41:23 20'41 5558 3945 -1613 5550
53 MERMILLOD M-Elisabet 7307 D55 3811RA 0:42:20 21'10 3614 3856 +242 3947
54 BORRELLI Bernadette 5167 D65 8302AZ 0:42:38 21'19 2264 3829 +1565 2574
55 CHAILLARD Dana 12045 D16 7305RA 0:43:22 21'41 2609 3765 +1156 2956
56 BERGER M-Jose 7182 D60 5703LO 0:43:55 21'57 3893 3717 -176 3930
57 ANTOINE Regis 1276 H70 7108BO 0:43:56 21'58 3613 3716 +103 3704
58 MAGDINIER Gilles 1635 H60 1307PR 0:44:29 22'14 4806 3670 -1136 4904
59 JEQUEL Yann 3086 H65 4403PL 0:44:53 22'26 4388 3637 -751 4388
60 GOLMARD Chantal 2668 D55 2101BO 0:45:21 22'40 3377 3600 +223 3294
61 VILLEDIEU Martine 13752 D55 6913RA 0:45:22 22'41 3873 3599 -274 3882
62 COULON Annick 10073 D60 0615AZ 0:45:28 22'44 3754 3591 -163 3792
63 THIEBAULT Monique 5033 D65 3318AQ 0:45:32 22'46 3574 3585 +11 3562
64 BAUDOIN Annie 16634 D60 0615AZ 0:46:03 23'01 3192 3545 +353 3369
65 SCHELCHER Ginette 20409 D50 6806AL 0:46:03 23'01 3741 3545 -196 3855
66 COMBET Annie 813 D50 4203RA 0:46:08 23'04 4353 3539 -814 4512
67 KRIPPEL Johann 26285 H21 5407LO 0:46:35 23'17 3505 3365
68 ELIAS Jean-claude 24745 H70 1307PR 0:46:50 23'25 2793 3486 +693 3599
69 PITAVAL Sylvie 12060 D50 4201RA 0:47:16 23'38 3820 3454 -366 3888
70 PERMINGEAT Helene 21054 D55 2606RA 0:47:36 23'48 3222 3430 +208 3322
71 GATY Daniele 841 D55 4203RA 0:47:42 23'51 4109 3423 -686 4109
72 CABIANCA Beatrice 2426 D50 4709AQ 0:47:51 23'55 3598 3412 -186 3710
73 BESTEL Sandra 10758 D16 9105IF 0:48:07 24'03 3979 3393 -586 4077
74 MARTIN Gilbert 5141 H60 9404IF 0:48:23 24'11 4354 3374 -980 4431
75 COLOMBET Christian 3163 H65 2108BO 0:48:24 24'12 5174 3373 -1801 5172
76 GUET Martine 11810 D55 6906RA 0:48:24 24'12 2843 3373 +530 2809
77 GRAUER Isabelle 11322 D55 1307PR 0:48:34 24'17 3461 3361 -100 3393
78 ANNE Brigitte 1672 D60 0111RA 0:49:06 24'33 3257 3325 +68 3333
79 MONTERRAT Martine 8512 D50 4203RA 0:49:13 24'36 3313 3317 +4 3320
80 MOUTRILLE Bernard 6359 H60 2105BO 0:49:23 24'41 3010 3306 +296 2892
81 GERBEAUX Jean-paul 23596 H60 6205NO 0:49:28 24'44 3726 3300 -426 3726
82 ANNE Roger 1673 H60 0111RA 0:49:41 24'50 4262 3286 -976 4097
83 CHATAGNIER Clea 11106 D16 7404RA 0:49:43 24'51 1854 3284 +1430 1873
84 DRAULT J-Raymond 4234 H70 8702LI 0:50:22 25'11 2833 3241 +408 3087
85 JAOUEN Denis 6885 H60 2904BR 0:50:25 25'12 3932 3238 -694 3932
86 XIMENEZ Nadege 21359 D45 3801RA 0:50:26 25'13 3316 3237 -79 3316
87 MENUT J-Claude 1656 H60 8105MP 0:50:31 25'15 5800 3232 -2568 5778
88 ASSANTE Gerard 19382 H65 1303PR 0:50:44 25'22 3799 3218 -581 4013
89 HERVE-JOUSSE Odile 13784 D55 9109IF 0:50:54 25'27 3532 3207 -325 3576
90 MOISSET Nicole 2329 D55 7403RA 0:50:58 25'29 3360 3203 -157 2923
91 ABISSE Jacques 703 H65 2508FC 0:51:25 25'42 4628 3175 -1453 4628
92 BOUVERET Michelle 12102 D55 2508FC 0:51:30 25'45 3622 3170 -452 3725
93 BERRIEN Coline 18765 D16 1303PR 0:52:11 26'05 2355 3129 +774 2540
94 DEVILLE Nelly 2401 D60 5402LO 0:52:43 26'21 4935 3097 -1838 4823
95 BOENSCH Francoise 1585 D55 1307PR 0:53:01 26'30 3017 3079 +62 2972
96 SLIMAN Jacques 4537 H60 0503PR 0:53:05 26'32 4065 3075 -990 4065
97 RAULT Monique 17265 D55 1103LR 0:53:19 26'39 2915 3062 +147 3123
98 MARCHESIN Sylvie 1487 D50 5702LO 0:54:20 27'10 5183 3005 -2178 5183
99 CAZALA Dominique 14876 D55 3308AQ 0:56:13 28'06 2907 2904 -3 2936
100 SCHMITT-POUPARD Florence 12056 D55 6913RA 0:56:30 28'15 3927 2889 -1038 3927
101 BOYER Bernard 2294 H65 8702LI 0:56:54 28'27 2506 2869 +363 2910
102 GANDON J-Claude 249 H70 6906RA 0:56:57 28'28 4025 2867 -1158 4163
103 ABISSE Gisele 701 D65 2508FC 0:57:22 28'41 3543 2846 -697 3558
104 KIEFFER Mireille 2680 D65 2101BO 0:57:27 28'43 2734 2842 +108 2782
105 LAZAROWICZ Richard 3600 H65 7512IF 0:57:32 28'46 3553 2838 -715 3448
106 CURT Daniel 7204 H65 5702LO 0:58:04 29'02 2212 2812 +600 2364
107 GEOFFROY Nicole 6443 D60 3408LR 0:58:15 29'07 3216 2803 -413 3246
108 BEGUINOT Claire 13961 D16 5702LO 0:58:40 29'20 0 2783 2907
109 DODIER Lucile 10486 D16 8405PR 0:59:10 29'35 1670 2759 +1089 1788
110 GIGON-VELUZAT Laurence 11316 D50 3809RA 0:59:25 29'42 2983 2748 -235 2652
111 KIEFFER J-Paul 2679 H60 2101BO 0:59:58 29'59 3840 2722 -1118 3885
112 DUVAL Jacques 2524 H60 5703LO 1:00:12 30'06 3484 2712 -772 3431
113 RIFFARD M-Lucie 2446 D70 5702LO 1:00:49 30'24 3093 2684 -409 2948
114 VERDIN Christine 15274 D50 7109BO 1:02:17 31'08 2696 2621 -75 2621
115 SURBAYROLE Nicolas 22415 H18 3811RA 1:02:37 31'18 2116 2607 +491 2464
116 CERET Martine 4597 D55 4203RA 1:02:53 31'26 3403 2596 -807 3353
117 RIFFARD J-Claude 2445 H70 5702LO 1:03:54 31'57 3350 2555 -795 3356
118 PASCAUD Claire 3185 D65 9006FC 1:03:58 31'59 2359 2552 +193 2368
119 ASSANTE Michele 19383 D55 1303PR 1:04:02 32'01 2821 2550 -271 3030
120 SUTTER Odile 2387 D55 6806AL 1:04:44 32'22 3103 2522 -581 3009
121 VERGE Evelyne 12787 D50 4601MP 1:05:40 32'50 3208 2486 -722 3258
122 GUIGNARD Marie 11369 D50 7203PL 1:06:02 33'01 3391 2472 -919 3437
123 SIMONET Marie 931 D60 7707IF 1:06:12 33'06 2842 2466 -376 2965
124 MULLER Raymond 352 H70 9006FC 1:07:32 33'46 3175 2417 -758 2945
125 MOLLARET Arielle 14534 D50 7404RA 1:08:01 34'00 1568 2400 +832 0
126 LENFANT Chantal 10264 D55 3811RA 1:10:02 35'01 3092 2331 -761 3234
127 DECHAVANNE Denise 3462 D55 6911RA 1:10:34 35'17 2276 2313 +37 2317
128 GROSJEAN A-Marie 12059 D70 6913RA 1:12:19 36'09 2838 2258 -580 2838
129 GUIGUET Antoinette 454 D55 1303PR 1:16:00 38'00 3006 2148 -858 3270
130 PEETERS Simone 295 D70 7305RA 1:20:21 40'10 2339 2032 -307 2286
131 VINCENT Isabelle 24288 D55 2606RA 1:21:50 40'55 900 1995 +1095 904
132 CATMUR virginia 25103 D55 0503PR 1:22:43 41'21 1563 1974 +411 1791
133 THIEVENAZ Francoise 19672 D60 3811RA 1:23:32 41'46 0 1954 1816
134 FINO Béatrice 1674 D40 0111RA 1:25:37 42'48 2538 1907 -631 2592
135 BERION Marie-Josephe 23056 D55 2508FC 1:33:21 46'40 2655 1749 -906 2789
136 REYNAUD Elisabeth 24430 D50 0703RA 1:36:00 48'00 1701 0
137 BOCHET Roland 512 H70 3408LR 1:39:45 49'52 1971 1637 -334 2134
BISSIERE Camille 19486 D16 4709AQ pm None 4295 0 4148
BENEVELLO Olivier 1124 H60 0615AZ pm None 4197 0 4300
BEDRY Milla 24043 D16 8404PR pm None 0 0 0
MATHIEU Maurice 476 H60 8404PR pm None 3628 0 3606
LEMAIRE Nathalie 10979 D50 1307PR pm None 3577 0 3577
GUIGUET Michel 455 H65 1303PR pm None 4227 0 4227
ELIAS Pauline 16137 D16 1307PR pm None 3684 0 3698
BOUILLET Geneviève 8944 D60 3811RA pm None 2282 0 2433
DEGORS Marine 25439 D16 3809RA pm None 0 1692
ALLANCON Claudine 14632 D60 2906BR pm None 2060 0 2114
QUEYROI Yvette 14021 D50 3308AQ pm None 2090 0 2107
SABON Valérie 25685 D50 1307PR pm None 0 0 1136